sensor_id;sensor_type;location;lat;lon;timestamp;P1;durP1;ratioP1;P2;durP2;ratioP2
2824;SDS011;1420;51.324;12.344;2023-07-13T00:00:10;289.66;;;276.74;;
2824;SDS011;1420;51.324;12.344;2023-07-13T00:02:38;274.22;;;261.52;;
2824;SDS011;1420;51.324;12.344;2023-07-13T00:05:05;265.78;;;253.16;;
2824;SDS011;1420;51.324;12.344;2023-07-13T00:07:33;250.30;;;238.66;;
2824;SDS011;1420;51.324;12.344;2023-07-13T00:10:00;273.74;;;261.24;;
2824;SDS011;1420;51.324;12.344;2023-07-13T00:12:29;272.90;;;260.44;;
2824;SDS011;1420;51.324;12.344;2023-07-13T00:14:57;266.22;;;253.70;;
2824;SDS011;1420;51.324;12.344;2023-07-13T00:17:23;259.82;;;248.08;;
2824;SDS011;1420;51.324;12.344;2023-07-13T00:19:50;261.38;;;249.28;;
2824;SDS011;1420;51.324;12.344;2023-07-13T00:22:18;281.50;;;268.60;;
2824;SDS011;1420;51.324;12.344;2023-07-13T00:24:45;272.88;;;260.86;;
2824;SDS011;1420;51.324;12.344;2023-07-13T00:27:12;280.48;;;267.96;;
2824;SDS011;1420;51.324;12.344;2023-07-13T00:29:39;314.40;;;300.02;;
2824;SDS011;1420;51.324;12.344;2023-07-13T00:32:06;270.64;;;258.44;;
2824;SDS011;1420;51.324;12.344;2023-07-13T00:34:34;284.74;;;271.74;;
2824;SDS011;1420;51.324;12.344;2023-07-13T00:37:01;304.82;;;290.84;;
2824;SDS011;1420;51.324;12.344;2023-07-13T00:39:29;284.32;;;271.28;;
2824;SDS011;1420;51.324;12.344;2023-07-13T00:41:56;270.10;;;257.42;;
2824;SDS011;1420;51.324;12.344;2023-07-13T00:44:23;288.88;;;275.96;;
2824;SDS011;1420;51.324;12.344;2023-07-13T00:46:51;276.86;;;264.10;;
2824;SDS011;1420;51.324;12.344;2023-07-13T00:49:19;297.86;;;284.04;;
2824;SDS011;1420;51.324;12.344;2023-07-13T00:51:48;305.68;;;292.22;;
2824;SDS011;1420;51.324;12.344;2023-07-13T00:54:17;297.02;;;283.44;;
2824;SDS011;1420;51.324;12.344;2023-07-13T00:56:43;289.42;;;276.32;;
2824;SDS011;1420;51.324;12.344;2023-07-13T00:59:09;269.84;;;257.32;;
2824;SDS011;1420;51.324;12.344;2023-07-13T01:01:37;289.88;;;276.86;;
2824;SDS011;1420;51.324;12.344;2023-07-13T01:04:05;284.48;;;271.72;;
2824;SDS011;1420;51.324;12.344;2023-07-13T01:06:32;271.88;;;259.58;;
2824;SDS011;1420;51.324;12.344;2023-07-13T01:09:00;242.34;;;230.82;;
2824;SDS011;1420;51.324;12.344;2023-07-13T01:11:27;235.52;;;224.86;;
2824;SDS011;1420;51.324;12.344;2023-07-13T01:13:55;237.98;;;227.20;;
2824;SDS011;1420;51.324;12.344;2023-07-13T01:16:25;219.06;;;208.88;;
2824;SDS011;1420;51.324;12.344;2023-07-13T01:18:51;210.78;;;200.78;;
2824;SDS011;1420;51.324;12.344;2023-07-13T01:21:18;256.10;;;243.62;;
2824;SDS011;1420;51.324;12.344;2023-07-13T01:23:46;165.80;;;157.46;;
2824;SDS011;1420;51.324;12.344;2023-07-13T01:26:13;127.56;;;120.92;;
2824;SDS011;1420;51.324;12.344;2023-07-13T01:28:40;126.84;;;120.06;;
2824;SDS011;1420;51.324;12.344;2023-07-13T01:31:08;109.08;;;102.84;;
2824;SDS011;1420;51.324;12.344;2023-07-13T01:33:37;86.46;;;81.16;;
2824;SDS011;1420;51.324;12.344;2023-07-13T01:36:03;63.02;;;58.80;;
2824;SDS011;1420;51.324;12.344;2023-07-13T01:38:30;65.52;;;61.12;;
2824;SDS011;1420;51.324;12.344;2023-07-13T01:40:57;47.10;;;43.74;;
2824;SDS011;1420;51.324;12.344;2023-07-13T01:43:25;32.64;;;29.72;;
2824;SDS011;1420;51.324;12.344;2023-07-13T01:45:53;26.84;;;24.26;;
2824;SDS011;1420;51.324;12.344;2023-07-13T01:48:20;38.12;;;34.80;;
2824;SDS011;1420;51.324;12.344;2023-07-13T01:50:47;32.78;;;29.92;;
2824;SDS011;1420;51.324;12.344;2023-07-13T01:53:14;31.20;;;28.30;;
2824;SDS011;1420;51.324;12.344;2023-07-13T01:55:42;35.32;;;32.46;;
2824;SDS011;1420;51.324;12.344;2023-07-13T01:58:09;37.28;;;34.28;;
2824;SDS011;1420;51.324;12.344;2023-07-13T02:00:37;37.42;;;34.46;;
2824;SDS011;1420;51.324;12.344;2023-07-13T02:03:05;46.02;;;42.44;;
2824;SDS011;1420;51.324;12.344;2023-07-13T02:05:32;48.66;;;45.26;;
2824;SDS011;1420;51.324;12.344;2023-07-13T02:07:59;47.10;;;43.50;;
2824;SDS011;1420;51.324;12.344;2023-07-13T02:10:27;43.44;;;40.14;;
2824;SDS011;1420;51.324;12.344;2023-07-13T02:12:54;29.18;;;26.44;;
2824;SDS011;1420;51.324;12.344;2023-07-13T02:15:21;29.36;;;26.70;;
2824;SDS011;1420;51.324;12.344;2023-07-13T02:17:49;38.80;;;35.72;;
2824;SDS011;1420;51.324;12.344;2023-07-13T02:20:16;30.96;;;28.06;;
2824;SDS011;1420;51.324;12.344;2023-07-13T02:22:44;26.82;;;24.06;;
2824;SDS011;1420;51.324;12.344;2023-07-13T02:25:12;29.00;;;26.30;;
2824;SDS011;1420;51.324;12.344;2023-07-13T02:27:39;25.40;;;22.90;;
2824;SDS011;1420;51.324;12.344;2023-07-13T02:30:06;21.26;;;18.46;;
2824;SDS011;1420;51.324;12.344;2023-07-13T02:32:34;26.14;;;23.68;;
2824;SDS011;1420;51.324;12.344;2023-07-13T02:35:01;21.66;;;18.42;;
2824;SDS011;1420;51.324;12.344;2023-07-13T02:37:29;19.34;;;14.90;;
2824;SDS011;1420;51.324;12.344;2023-07-13T02:39:56;20.74;;;16.46;;
2824;SDS011;1420;51.324;12.344;2023-07-13T02:42:23;18.90;;;14.64;;
2824;SDS011;1420;51.324;12.344;2023-07-13T02:44:50;22.18;;;19.96;;
2824;SDS011;1420;51.324;12.344;2023-07-13T02:47:17;17.86;;;13.10;;
2824;SDS011;1420;51.324;12.344;2023-07-13T02:49:45;19.98;;;14.80;;
2824;SDS011;1420;51.324;12.344;2023-07-13T02:52:12;16.42;;;7.58;;
2824;SDS011;1420;51.324;12.344;2023-07-13T02:54:39;16.20;;;10.68;;
2824;SDS011;1420;51.324;12.344;2023-07-13T02:57:06;16.40;;;5.32;;
2824;SDS011;1420;51.324;12.344;2023-07-13T02:59:33;13.24;;;5.90;;
2824;SDS011;1420;51.324;12.344;2023-07-13T03:02:01;12.74;;;3.26;;
2824;SDS011;1420;51.324;12.344;2023-07-13T03:04:28;12.16;;;6.34;;
2824;SDS011;1420;51.324;12.344;2023-07-13T03:06:55;10.50;;;3.56;;
2824;SDS011;1420;51.324;12.344;2023-07-13T03:09:22;9.58;;;2.34;;
2824;SDS011;1420;51.324;12.344;2023-07-13T03:11:51;10.80;;;4.38;;
2824;SDS011;1420;51.324;12.344;2023-07-13T03:14:17;10.02;;;4.04;;
2824;SDS011;1420;51.324;12.344;2023-07-13T03:16:44;10.26;;;3.62;;
2824;SDS011;1420;51.324;12.344;2023-07-13T03:19:11;9.88;;;3.44;;
2824;SDS011;1420;51.324;12.344;2023-07-13T03:21:38;8.52;;;3.08;;
2824;SDS011;1420;51.324;12.344;2023-07-13T03:24:06;8.86;;;3.46;;
2824;SDS011;1420;51.324;12.344;2023-07-13T03:26:34;12.90;;;9.58;;
2824;SDS011;1420;51.324;12.344;2023-07-13T03:29:02;10.40;;;2.38;;
2824;SDS011;1420;51.324;12.344;2023-07-13T03:31:33;8.72;;;3.20;;
2824;SDS011;1420;51.324;12.344;2023-07-13T03:33:58;14.60;;;2.70;;
2824;SDS011;1420;51.324;12.344;2023-07-13T03:36:26;10.30;;;3.48;;
2824;SDS011;1420;51.324;12.344;2023-07-13T03:38:55;9.50;;;3.86;;
2824;SDS011;1420;51.324;12.344;2023-07-13T03:41:22;8.76;;;3.78;;
2824;SDS011;1420;51.324;12.344;2023-07-13T03:43:50;9.18;;;3.10;;
2824;SDS011;1420;51.324;12.344;2023-07-13T03:46:17;10.92;;;3.32;;
2824;SDS011;1420;51.324;12.344;2023-07-13T03:48:45;9.94;;;3.96;;
2824;SDS011;1420;51.324;12.344;2023-07-13T03:51:11;10.08;;;4.12;;
2824;SDS011;1420;51.324;12.344;2023-07-13T03:53:39;8.30;;;2.62;;
2824;SDS011;1420;51.324;12.344;2023-07-13T03:56:05;10.14;;;3.58;;
2824;SDS011;1420;51.324;12.344;2023-07-13T03:58:34;9.52;;;4.10;;
2824;SDS011;1420;51.324;12.344;2023-07-13T04:01:00;11.36;;;3.64;;
2824;SDS011;1420;51.324;12.344;2023-07-13T04:03:27;8.12;;;3.62;;
2824;SDS011;1420;51.324;12.344;2023-07-13T04:05:55;8.42;;;2.98;;
2824;SDS011;1420;51.324;12.344;2023-07-13T04:08:22;7.74;;;2.34;;
2824;SDS011;1420;51.324;12.344;2023-07-13T04:10:49;7.54;;;2.98;;
2824;SDS011;1420;51.324;12.344;2023-07-13T04:13:16;8.34;;;4.04;;
2824;SDS011;1420;51.324;12.344;2023-07-13T04:15:43;7.84;;;2.50;;
2824;SDS011;1420;51.324;12.344;2023-07-13T04:18:10;10.10;;;2.78;;
2824;SDS011;1420;51.324;12.344;2023-07-13T04:20:38;9.50;;;3.74;;
2824;SDS011;1420;51.324;12.344;2023-07-13T04:23:05;9.34;;;4.42;;
2824;SDS011;1420;51.324;12.344;2023-07-13T04:25:32;8.48;;;3.92;;
2824;SDS011;1420;51.324;12.344;2023-07-13T04:27:59;11.28;;;2.66;;
2824;SDS011;1420;51.324;12.344;2023-07-13T04:30:26;8.86;;;3.14;;
2824;SDS011;1420;51.324;12.344;2023-07-13T04:32:54;11.26;;;3.66;;
2824;SDS011;1420;51.324;12.344;2023-07-13T04:35:22;13.08;;;3.52;;
2824;SDS011;1420;51.324;12.344;2023-07-13T04:37:50;13.62;;;3.46;;
2824;SDS011;1420;51.324;12.344;2023-07-13T04:40:18;10.04;;;4.40;;
2824;SDS011;1420;51.324;12.344;2023-07-13T04:42:46;11.30;;;3.84;;
2824;SDS011;1420;51.324;12.344;2023-07-13T04:45:14;11.98;;;6.08;;
2824;SDS011;1420;51.324;12.344;2023-07-13T04:47:40;10.06;;;4.02;;
2824;SDS011;1420;51.324;12.344;2023-07-13T04:50:08;11.28;;;4.06;;
2824;SDS011;1420;51.324;12.344;2023-07-13T04:52:36;9.18;;;3.52;;
2824;SDS011;1420;51.324;12.344;2023-07-13T04:55:03;11.32;;;3.24;;
2824;SDS011;1420;51.324;12.344;2023-07-13T04:57:33;10.18;;;4.44;;
2824;SDS011;1420;51.324;12.344;2023-07-13T05:00:06;10.56;;;4.20;;
2824;SDS011;1420;51.324;12.344;2023-07-13T05:02:33;9.92;;;4.56;;
2824;SDS011;1420;51.324;12.344;2023-07-13T05:05:01;12.98;;;4.62;;
2824;SDS011;1420;51.324;12.344;2023-07-13T05:07:28;10.52;;;3.80;;
2824;SDS011;1420;51.324;12.344;2023-07-13T05:09:56;11.42;;;4.80;;
2824;SDS011;1420;51.324;12.344;2023-07-13T05:12:23;11.20;;;4.36;;
2824;SDS011;1420;51.324;12.344;2023-07-13T05:14:50;12.48;;;3.40;;
2824;SDS011;1420;51.324;12.344;2023-07-13T05:17:17;11.92;;;3.74;;
2824;SDS011;1420;51.324;12.344;2023-07-13T05:19:45;13.02;;;4.32;;
2824;SDS011;1420;51.324;12.344;2023-07-13T05:22:12;13.40;;;5.18;;
2824;SDS011;1420;51.324;12.344;2023-07-13T05:24:39;12.64;;;4.46;;
2824;SDS011;1420;51.324;12.344;2023-07-13T05:27:06;12.78;;;5.04;;
2824;SDS011;1420;51.324;12.344;2023-07-13T05:29:33;16.44;;;4.96;;
2824;SDS011;1420;51.324;12.344;2023-07-13T05:32:01;15.24;;;6.44;;
2824;SDS011;1420;51.324;12.344;2023-07-13T05:34:29;16.68;;;6.64;;
2824;SDS011;1420;51.324;12.344;2023-07-13T05:36:56;16.30;;;6.50;;
2824;SDS011;1420;51.324;12.344;2023-07-13T05:39:24;17.72;;;8.42;;
2824;SDS011;1420;51.324;12.344;2023-07-13T05:41:52;17.98;;;8.70;;
2824;SDS011;1420;51.324;12.344;2023-07-13T05:44:20;18.44;;;10.70;;
2824;SDS011;1420;51.324;12.344;2023-07-13T05:46:48;18.54;;;11.10;;
2824;SDS011;1420;51.324;12.344;2023-07-13T05:49:16;20.12;;;16.62;;
2824;SDS011;1420;51.324;12.344;2023-07-13T05:51:44;23.50;;;20.98;;
2824;SDS011;1420;51.324;12.344;2023-07-13T05:54:11;28.10;;;25.60;;
2824;SDS011;1420;51.324;12.344;2023-07-13T05:56:38;41.00;;;37.90;;
2824;SDS011;1420;51.324;12.344;2023-07-13T05:59:05;59.68;;;55.62;;
2824;SDS011;1420;51.324;12.344;2023-07-13T06:01:32;81.32;;;76.54;;
2824;SDS011;1420;51.324;12.344;2023-07-13T06:04:00;112.88;;;106.86;;
2824;SDS011;1420;51.324;12.344;2023-07-13T06:06:27;142.66;;;135.68;;
2824;SDS011;1420;51.324;12.344;2023-07-13T06:08:55;141.28;;;134.10;;
2824;SDS011;1420;51.324;12.344;2023-07-13T06:11:23;138.88;;;131.70;;
2824;SDS011;1420;51.324;12.344;2023-07-13T06:13:49;142.14;;;135.16;;
2824;SDS011;1420;51.324;12.344;2023-07-13T06:16:16;143.96;;;136.82;;
2824;SDS011;1420;51.324;12.344;2023-07-13T06:18:44;213.44;;;203.72;;
2824;SDS011;1420;51.324;12.344;2023-07-13T06:21:14;224.10;;;213.66;;
2824;SDS011;1420;51.324;12.344;2023-07-13T06:23:40;181.48;;;172.48;;
2824;SDS011;1420;51.324;12.344;2023-07-13T06:26:07;162.86;;;153.98;;
2824;SDS011;1420;51.324;12.344;2023-07-13T06:28:34;108.38;;;101.96;;
2824;SDS011;1420;51.324;12.344;2023-07-13T06:31:04;129.02;;;121.70;;
2824;SDS011;1420;51.324;12.344;2023-07-13T06:33:30;114.32;;;107.10;;
2824;SDS011;1420;51.324;12.344;2023-07-13T06:35:57;156.36;;;147.42;;
2824;SDS011;1420;51.324;12.344;2023-07-13T06:38:24;210.72;;;199.44;;
2824;SDS011;1420;51.324;12.344;2023-07-13T06:40:52;190.34;;;179.86;;
2824;SDS011;1420;51.324;12.344;2023-07-13T06:43:20;208.46;;;197.74;;
2824;SDS011;1420;51.324;12.344;2023-07-13T06:45:48;288.72;;;273.90;;
2824;SDS011;1420;51.324;12.344;2023-07-13T06:48:14;260.12;;;247.12;;
2824;SDS011;1420;51.324;12.344;2023-07-13T06:50:42;261.56;;;247.86;;
2824;SDS011;1420;51.324;12.344;2023-07-13T06:53:10;197.02;;;186.12;;
2824;SDS011;1420;51.324;12.344;2023-07-13T06:55:36;244.24;;;231.80;;
2824;SDS011;1420;51.324;12.344;2023-07-13T06:58:04;380.70;;;361.94;;
2824;SDS011;1420;51.324;12.344;2023-07-13T07:00:31;335.10;;;318.68;;
2824;SDS011;1420;51.324;12.344;2023-07-13T07:02:59;342.18;;;325.38;;
2824;SDS011;1420;51.324;12.344;2023-07-13T07:05:27;224.66;;;212.78;;
2824;SDS011;1420;51.324;12.344;2023-07-13T07:07:54;219.36;;;207.52;;
2824;SDS011;1420;51.324;12.344;2023-07-13T07:10:21;273.98;;;259.60;;
2824;SDS011;1420;51.324;12.344;2023-07-13T07:12:48;376.18;;;357.82;;
2824;SDS011;1420;51.324;12.344;2023-07-13T07:15:17;432.70;;;412.20;;
2824;SDS011;1420;51.324;12.344;2023-07-13T07:17:44;421.16;;;401.32;;
2824;SDS011;1420;51.324;12.344;2023-07-13T07:20:11;400.18;;;381.38;;
2824;SDS011;1420;51.324;12.344;2023-07-13T07:22:38;385.70;;;367.32;;
2824;SDS011;1420;51.324;12.344;2023-07-13T07:25:06;353.00;;;336.70;;
2824;SDS011;1420;51.324;12.344;2023-07-13T07:27:34;331.98;;;315.84;;
2824;SDS011;1420;51.324;12.344;2023-07-13T07:30:01;294.90;;;280.48;;
2824;SDS011;1420;51.324;12.344;2023-07-13T07:32:29;283.14;;;269.54;;
2824;SDS011;1420;51.324;12.344;2023-07-13T07:34:57;246.54;;;234.64;;
2824;SDS011;1420;51.324;12.344;2023-07-13T07:37:24;276.18;;;263.40;;
2824;SDS011;1420;51.324;12.344;2023-07-13T07:39:51;253.98;;;241.32;;
2824;SDS011;1420;51.324;12.344;2023-07-13T07:42:19;288.34;;;274.78;;
2824;SDS011;1420;51.324;12.344;2023-07-13T07:44:46;318.58;;;303.34;;
2824;SDS011;1420;51.324;12.344;2023-07-13T07:47:14;371.86;;;354.50;;
2824;SDS011;1420;51.324;12.344;2023-07-13T07:49:41;367.36;;;350.48;;
2824;SDS011;1420;51.324;12.344;2023-07-13T07:52:08;322.38;;;306.04;;
2824;SDS011;1420;51.324;12.344;2023-07-13T07:54:35;436.64;;;412.56;;
2824;SDS011;1420;51.324;12.344;2023-07-13T07:57:04;429.12;;;405.10;;
2824;SDS011;1420;51.324;12.344;2023-07-13T07:59:31;469.02;;;444.28;;
2824;SDS011;1420;51.324;12.344;2023-07-13T08:01:58;515.30;;;488.88;;
2824;SDS011;1420;51.324;12.344;2023-07-13T08:04:27;544.86;;;517.32;;
2824;SDS011;1420;51.324;12.344;2023-07-13T08:06:54;374.12;;;354.80;;
2824;SDS011;1420;51.324;12.344;2023-07-13T08:09:22;184.04;;;173.30;;
2824;SDS011;1420;51.324;12.344;2023-07-13T08:11:49;173.34;;;164.34;;
2824;SDS011;1420;51.324;12.344;2023-07-13T08:14:17;224.52;;;214.02;;
2824;SDS011;1420;51.324;12.344;2023-07-13T08:16:44;240.24;;;228.62;;
2824;SDS011;1420;51.324;12.344;2023-07-13T08:19:12;178.12;;;168.64;;
2824;SDS011;1420;51.324;12.344;2023-07-13T08:21:39;209.64;;;198.72;;
2824;SDS011;1420;51.324;12.344;2023-07-13T08:24:07;270.08;;;256.66;;
2824;SDS011;1420;51.324;12.344;2023-07-13T08:26:33;165.06;;;155.72;;
2824;SDS011;1420;51.324;12.344;2023-07-13T08:29:00;159.26;;;150.40;;
2824;SDS011;1420;51.324;12.344;2023-07-13T08:31:28;410.00;;;390.70;;
2824;SDS011;1420;51.324;12.344;2023-07-13T08:33:55;326.68;;;310.88;;
2824;SDS011;1420;51.324;12.344;2023-07-13T08:36:22;249.14;;;236.44;;
2824;SDS011;1420;51.324;12.344;2023-07-13T08:38:49;219.60;;;208.36;;
2824;SDS011;1420;51.324;12.344;2023-07-13T08:41:18;449.76;;;428.40;;
2824;SDS011;1420;51.324;12.344;2023-07-13T08:43:45;440.36;;;419.48;;
2824;SDS011;1420;51.324;12.344;2023-07-13T08:46:13;413.58;;;394.18;;
2824;SDS011;1420;51.324;12.344;2023-07-13T08:48:41;397.08;;;377.22;;
2824;SDS011;1420;51.324;12.344;2023-07-13T08:51:19;347.68;;;331.46;;
2824;SDS011;1420;51.324;12.344;2023-07-13T08:53:46;354.02;;;336.16;;
2824;SDS011;1420;51.324;12.344;2023-07-13T08:56:16;291.76;;;277.24;;
2824;SDS011;1420;51.324;12.344;2023-07-13T08:58:53;280.30;;;265.96;;
2824;SDS011;1420;51.324;12.344;2023-07-13T09:01:22;254.18;;;241.74;;
2824;SDS011;1420;51.324;12.344;2023-07-13T09:04:04;278.20;;;265.52;;
2824;SDS011;1420;51.324;12.344;2023-07-13T09:06:34;259.16;;;246.94;;
2824;SDS011;1420;51.324;12.344;2023-07-13T09:08:59;258.64;;;246.38;;
2824;SDS011;1420;51.324;12.344;2023-07-13T09:11:33;332.86;;;317.28;;
2824;SDS011;1420;51.324;12.344;2023-07-13T09:14:06;345.08;;;328.84;;
2824;SDS011;1420;51.324;12.344;2023-07-13T09:16:30;337.22;;;321.46;;
2824;SDS011;1420;51.324;12.344;2023-07-13T09:18:59;292.18;;;277.50;;
2824;SDS011;1420;51.324;12.344;2023-07-13T09:21:26;263.72;;;250.86;;
2824;SDS011;1420;51.324;12.344;2023-07-13T09:23:56;296.16;;;282.38;;
2824;SDS011;1420;51.324;12.344;2023-07-13T09:26:23;288.36;;;274.84;;
2824;SDS011;1420;51.324;12.344;2023-07-13T09:28:53;321.34;;;306.56;;
2824;SDS011;1420;51.324;12.344;2023-07-13T09:31:20;327.72;;;312.54;;
2824;SDS011;1420;51.324;12.344;2023-07-13T09:33:46;309.06;;;294.68;;
2824;SDS011;1420;51.324;12.344;2023-07-13T09:36:20;313.68;;;299.14;;
2824;SDS011;1420;51.324;12.344;2023-07-13T09:38:46;338.34;;;322.42;;
2824;SDS011;1420;51.324;12.344;2023-07-13T09:41:19;348.72;;;332.20;;
2824;SDS011;1420;51.324;12.344;2023-07-13T09:44:09;351.62;;;334.46;;
2824;SDS011;1420;51.324;12.344;2023-07-13T09:46:39;545.20;;;516.78;;
2824;SDS011;1420;51.324;12.344;2023-07-13T09:49:08;531.38;;;504.44;;
2824;SDS011;1420;51.324;12.344;2023-07-13T09:51:34;544.80;;;516.92;;
2824;SDS011;1420;51.324;12.344;2023-07-13T09:54:01;529.94;;;502.92;;
2824;SDS011;1420;51.324;12.344;2023-07-13T09:56:29;590.70;;;560.34;;
2824;SDS011;1420;51.324;12.344;2023-07-13T09:58:56;582.16;;;551.98;;
2824;SDS011;1420;51.324;12.344;2023-07-13T10:03:57;562.78;;;534.54;;
2824;SDS011;1420;51.324;12.344;2023-07-13T10:06:24;494.14;;;468.98;;
2824;SDS011;1420;51.324;12.344;2023-07-13T10:08:53;437.12;;;415.34;;
2824;SDS011;1420;51.324;12.344;2023-07-13T10:11:20;229.08;;;216.50;;
2824;SDS011;1420;51.324;12.344;2023-07-13T10:13:55;134.20;;;126.52;;
2824;SDS011;1420;51.324;12.344;2023-07-13T10:16:24;210.00;;;199.80;;
2824;SDS011;1420;51.324;12.344;2023-07-13T10:18:53;244.64;;;233.16;;
2824;SDS011;1420;51.324;12.344;2023-07-13T10:21:22;264.70;;;252.54;;
2824;SDS011;1420;51.324;12.344;2023-07-13T10:23:53;231.78;;;220.70;;
2824;SDS011;1420;51.324;12.344;2023-07-13T10:26:21;249.66;;;237.72;;
2824;SDS011;1420;51.324;12.344;2023-07-13T10:28:49;235.74;;;224.34;;
2824;SDS011;1420;51.324;12.344;2023-07-13T10:31:15;321.18;;;306.26;;
2824;SDS011;1420;51.324;12.344;2023-07-13T10:33:42;340.16;;;323.52;;
2824;SDS011;1420;51.324;12.344;2023-07-13T10:36:13;300.30;;;284.96;;
2824;SDS011;1420;51.324;12.344;2023-07-13T10:38:40;231.58;;;219.86;;
2824;SDS011;1420;51.324;12.344;2023-07-13T10:41:09;224.86;;;213.14;;
2824;SDS011;1420;51.324;12.344;2023-07-13T10:43:50;194.24;;;184.14;;
2824;SDS011;1420;51.324;12.344;2023-07-13T10:46:18;341.88;;;324.68;;
2824;SDS011;1420;51.324;12.344;2023-07-13T10:48:46;420.36;;;399.00;;
2824;SDS011;1420;51.324;12.344;2023-07-13T10:51:14;549.76;;;521.24;;
2824;SDS011;1420;51.324;12.344;2023-07-13T10:53:40;490.28;;;465.76;;
2824;SDS011;1420;51.324;12.344;2023-07-13T11:01:38;480.90;;;457.76;;
2824;SDS011;1420;51.324;12.344;2023-07-13T11:03:59;338.66;;;321.78;;
2824;SDS011;1420;51.324;12.344;2023-07-13T11:06:36;342.14;;;324.10;;
2824;SDS011;1420;51.324;12.344;2023-07-13T11:11:42;323.60;;;307.38;;
2824;SDS011;1420;51.324;12.344;2023-07-13T11:16:56;402.32;;;382.10;;
2824;SDS011;1420;51.324;12.344;2023-07-13T11:19:25;297.34;;;281.90;;
2824;SDS011;1420;51.324;12.344;2023-07-13T11:22:02;406.06;;;385.78;;
2824;SDS011;1420;51.324;12.344;2023-07-13T11:27:22;454.70;;;432.26;;
2824;SDS011;1420;51.324;12.344;2023-07-13T11:29:48;521.00;;;494.76;;
2824;SDS011;1420;51.324;12.344;2023-07-13T11:32:21;510.86;;;485.70;;
2824;SDS011;1420;51.324;12.344;2023-07-13T11:34:46;535.64;;;508.80;;
2824;SDS011;1420;51.324;12.344;2023-07-13T11:37:15;515.04;;;490.04;;
2824;SDS011;1420;51.324;12.344;2023-07-13T11:39:42;528.14;;;502.40;;
2824;SDS011;1420;51.324;12.344;2023-07-13T11:42:11;527.46;;;502.38;;
2824;SDS011;1420;51.324;12.344;2023-07-13T11:44:41;484.60;;;460.70;;
2824;SDS011;1420;51.324;12.344;2023-07-13T11:47:09;538.68;;;511.58;;
2824;SDS011;1420;51.324;12.344;2023-07-13T11:49:41;493.14;;;469.24;;
2824;SDS011;1420;51.324;12.344;2023-07-13T11:52:11;504.70;;;477.44;;
2824;SDS011;1420;51.324;12.344;2023-07-13T11:54:46;416.26;;;395.86;;
2824;SDS011;1420;51.324;12.344;2023-07-13T11:57:20;437.04;;;415.82;;
2824;SDS011;1420;51.324;12.344;2023-07-13T11:59:46;383.44;;;365.06;;
2824;SDS011;1420;51.324;12.344;2023-07-13T12:02:16;424.88;;;404.44;;
2824;SDS011;1420;51.324;12.344;2023-07-13T12:04:41;422.62;;;402.80;;
2824;SDS011;1420;51.324;12.344;2023-07-13T12:07:17;424.20;;;403.48;;
2824;SDS011;1420;51.324;12.344;2023-07-13T12:09:45;470.36;;;448.24;;
2824;SDS011;1420;51.324;12.344;2023-07-13T12:12:13;440.88;;;419.02;;
2824;SDS011;1420;51.324;12.344;2023-07-13T12:14:40;400.00;;;380.36;;
2824;SDS011;1420;51.324;12.344;2023-07-13T12:17:11;425.30;;;404.24;;
2824;SDS011;1420;51.324;12.344;2023-07-13T12:19:45;401.58;;;381.92;;
2824;SDS011;1420;51.324;12.344;2023-07-13T12:22:13;429.04;;;408.02;;
2824;SDS011;1420;51.324;12.344;2023-07-13T12:24:41;436.16;;;414.64;;
2824;SDS011;1420;51.324;12.344;2023-07-13T12:27:15;437.76;;;415.80;;
2824;SDS011;1420;51.324;12.344;2023-07-13T12:29:48;455.64;;;432.64;;
2824;SDS011;1420;51.324;12.344;2023-07-13T12:32:14;411.10;;;390.46;;
2824;SDS011;1420;51.324;12.344;2023-07-13T12:34:50;504.54;;;477.56;;
2824;SDS011;1420;51.324;12.344;2023-07-13T12:37:08;475.54;;;449.82;;
2824;SDS011;1420;51.324;12.344;2023-07-13T12:39:34;479.16;;;454.02;;
2824;SDS011;1420;51.324;12.344;2023-07-13T12:44:49;432.48;;;410.18;;
2824;SDS011;1420;51.324;12.344;2023-07-13T12:47:16;388.60;;;369.42;;
2824;SDS011;1420;51.324;12.344;2023-07-13T12:49:49;431.14;;;408.60;;
2824;SDS011;1420;51.324;12.344;2023-07-13T12:52:16;431.24;;;409.38;;
2824;SDS011;1420;51.324;12.344;2023-07-13T12:54:51;519.96;;;492.60;;
2824;SDS011;1420;51.324;12.344;2023-07-13T12:57:13;450.94;;;428.28;;
2824;SDS011;1420;51.324;12.344;2023-07-13T12:59:36;489.34;;;463.06;;
2824;SDS011;1420;51.324;12.344;2023-07-13T13:02:09;426.58;;;405.02;;
2824;SDS011;1420;51.324;12.344;2023-07-13T13:04:32;451.28;;;428.84;;
2824;SDS011;1420;51.324;12.344;2023-07-13T13:07:01;392.48;;;373.54;;
2824;SDS011;1420;51.324;12.344;2023-07-13T13:09:27;419.44;;;398.88;;
2824;SDS011;1420;51.324;12.344;2023-07-13T13:11:54;390.28;;;370.60;;
2824;SDS011;1420;51.324;12.344;2023-07-13T13:14:22;412.36;;;392.22;;
2824;SDS011;1420;51.324;12.344;2023-07-13T13:16:50;408.70;;;389.16;;
2824;SDS011;1420;51.324;12.344;2023-07-13T13:19:18;429.06;;;408.00;;
2824;SDS011;1420;51.324;12.344;2023-07-13T13:21:45;462.42;;;438.38;;
2824;SDS011;1420;51.324;12.344;2023-07-13T13:24:12;408.04;;;387.92;;
2824;SDS011;1420;51.324;12.344;2023-07-13T13:26:40;395.30;;;375.82;;
2824;SDS011;1420;51.324;12.344;2023-07-13T13:29:17;404.18;;;384.42;;
2824;SDS011;1420;51.324;12.344;2023-07-13T13:31:45;425.80;;;404.90;;
2824;SDS011;1420;51.324;12.344;2023-07-13T13:34:13;424.38;;;403.66;;
2824;SDS011;1420;51.324;12.344;2023-07-13T13:36:40;425.46;;;404.70;;
2824;SDS011;1420;51.324;12.344;2023-07-13T13:39:15;443.90;;;421.52;;
2824;SDS011;1420;51.324;12.344;2023-07-13T13:41:43;403.66;;;383.02;;
2824;SDS011;1420;51.324;12.344;2023-07-13T13:44:10;427.96;;;406.02;;
2824;SDS011;1420;51.324;12.344;2023-07-13T13:46:37;392.64;;;372.64;;
2824;SDS011;1420;51.324;12.344;2023-07-13T13:49:07;439.04;;;417.14;;
2824;SDS011;1420;51.324;12.344;2023-07-13T13:51:33;414.86;;;393.82;;
2824;SDS011;1420;51.324;12.344;2023-07-13T13:54:00;424.48;;;402.78;;
2824;SDS011;1420;51.324;12.344;2023-07-13T13:56:27;479.46;;;453.30;;
2824;SDS011;1420;51.324;12.344;2023-07-13T13:58:55;404.26;;;383.64;;
2824;SDS011;1420;51.324;12.344;2023-07-13T14:01:22;384.10;;;365.42;;
2824;SDS011;1420;51.324;12.344;2023-07-13T14:03:49;385.80;;;367.14;;
2824;SDS011;1420;51.324;12.344;2023-07-13T14:06:16;428.98;;;407.84;;
2824;SDS011;1420;51.324;12.344;2023-07-13T14:08:44;395.10;;;375.34;;
2824;SDS011;1420;51.324;12.344;2023-07-13T14:11:11;418.76;;;398.00;;
2824;SDS011;1420;51.324;12.344;2023-07-13T14:13:40;372.56;;;353.94;;
2824;SDS011;1420;51.324;12.344;2023-07-13T14:16:10;396.44;;;376.78;;
2824;SDS011;1420;51.324;12.344;2023-07-13T14:18:36;454.48;;;431.88;;
2824;SDS011;1420;51.324;12.344;2023-07-13T14:21:03;409.08;;;387.42;;
2824;SDS011;1420;51.324;12.344;2023-07-13T14:23:31;405.10;;;385.24;;
2824;SDS011;1420;51.324;12.344;2023-07-13T14:25:59;455.88;;;431.76;;
2824;SDS011;1420;51.324;12.344;2023-07-13T14:28:26;385.78;;;366.42;;
2824;SDS011;1420;51.324;12.344;2023-07-13T14:30:54;418.10;;;396.60;;
2824;SDS011;1420;51.324;12.344;2023-07-13T14:33:21;383.40;;;364.76;;
2824;SDS011;1420;51.324;12.344;2023-07-13T14:35:49;378.42;;;359.74;;
2824;SDS011;1420;51.324;12.344;2023-07-13T14:38:18;388.66;;;369.56;;
2824;SDS011;1420;51.324;12.344;2023-07-13T14:40:43;385.28;;;365.20;;
2824;SDS011;1420;51.324;12.344;2023-07-13T14:43:11;408.58;;;387.44;;